Etusivu
METAR-TAF:

METAR-TAF

Lentoasemat :

Redstone Arsenal, Alabama, Yhdysvallat

Leveyspiiri: 34-40-43N, Pituuspiiri: 086-41-05W, korkeus merenpinnasta: 209 m

Tämänhetkinen sää

Tämä raportti tehtiin 45 minuuttia sitten, kello 22.58 UTC
Tuuli 8 kn etelästä/lounaasta
Lämpötila 17°C
Kosteus 88%
Ilmanpaine 1008 hPa
Näkyvyys: 16.1 km
Pilvistä 6000 ft:n korkeudessa

METAR: KHUA 252258Z AUTO 21008KT 10SM OVC060 17/15 A2977 RMK AO2 SLP079 T01660152

Aika: 18:43 (23:43 UTC)


TAF: puuttuu

Säähavainnot ja -ennusteet yli 4000 lentoasemalta (METAR- ja TAF-raportit).

Käytössä olevat sääasemat on merkitty karttaan keltaisilla ja punaisilla pisteillä.

Aseta hiiri pisteen päälle nähdäksesi sääaseman nimen.

Klikkaa sitten nähdäksesi säähavainnot ja -ennusteet.

Kartan vaihtaminen: klikkaa mustalla rastilla varustettuja vihreitä pisteitä, niin voit zoomata sisään; viivalla varustettua vihreää pistettä, niin voit zoomata ulos tai vihreitä nuolia, niin pääset viereisille kartoille.


METAR-TAF: